Time;durP1;ratioP1;P1;durP2;ratioP2;P2;SDS_P1;SDS_P2;PMS_P1;PMS_P2;Temp;Humidity;BMP_temperature;BMP_pressure;BME280_temperature;BME280_humidity;BME280_pressure;Samples;Min_cycle;Max_cycle;Signal;HPM_P1;HPM_P2
2022/09/12 00:00:30;;;;;;;7.97;7.37;;;;;;;13.34;100.00;100365.78;4965438;28;20204;-73
2022/09/12 00:02:57;;;;;;;7.73;7.13;;;;;;;13.32;100.00;100357.16;4964654;28;20737;-73
2022/09/12 00:05:23;;;;;;;7.77;7.20;;;;;;;13.29;100.00;100356.38;4963287;28;20272;-74
2022/09/12 00:07:49;;;;;;;7.07;6.47;;;;;;;13.27;100.00;100358.97;4965603;28;20260;-74
2022/09/12 00:10:14;;;;;;;7.53;7.00;;;;;;;13.25;100.00;100364.22;4967268;28;20641;-76
2022/09/12 00:12:40;;;;;;;7.13;6.63;;;;;;;13.22;100.00;100353.03;4966335;28;20682;-73
2022/09/12 00:15:06;;;;;;;7.13;6.53;;;;;;;13.18;100.00;100353.97;4965887;28;20197;-74
2022/09/12 00:17:35;;;;;;;6.90;6.30;;;;;;;13.15;100.00;100344.50;4965909;28;20284;-74
2022/09/12 00:20:01;;;;;;;7.47;6.93;;;;;;;13.13;100.00;100350.59;4967841;28;20598;-74
2022/09/12 00:22:26;;;;;;;7.10;6.50;;;;;;;13.08;100.00;100351.53;4975255;28;20206;-73
2022/09/12 00:24:52;;;;;;;7.40;6.90;;;;;;;13.06;100.00;100355.91;4972002;28;20276;-75
2022/09/12 00:27:17;;;;;;;7.40;6.60;;;;;;;13.02;100.00;100361.16;4965635;28;20622;-74
2022/09/12 00:29:42;;;;;;;6.33;5.83;;;;;;;12.99;100.00;100349.09;4966770;28;20202;-73
2022/09/12 00:32:08;;;;;;;7.03;6.50;;;;;;;12.96;100.00;100346.56;4969941;28;20191;-73
2022/09/12 00:34:33;;;;;;;6.47;5.97;;;;;;;12.92;100.00;100339.72;4974742;28;20232;-74
2022/09/12 00:36:58;;;;;;;7.00;6.43;;;;;;;12.90;100.00;100346.69;4967608;28;20251;-73
2022/09/12 00:39:24;;;;;;;6.63;6.07;;;;;;;12.88;100.00;100343.25;4974195;28;20198;-74
2022/09/12 00:41:49;;;;;;;6.70;6.30;;;;;;;12.86;100.00;100343.25;4965727;28;20198;-75
2022/09/12 00:44:14;;;;;;;6.47;5.97;;;;;;;12.86;100.00;100337.22;4963933;28;20199;-74
2022/09/12 00:46:44;;;;;;;6.60;5.90;;;;;;;12.86;100.00;100332.88;4964839;28;20936;-73
2022/09/12 00:49:23;;;;;;;6.73;6.17;;;;;;;12.85;100.00;100330.31;4975085;28;20221;-74
2022/09/12 00:51:56;;;;;;;7.47;6.90;;;;;;;12.82;100.00;100331.22;4964655;28;20238;-74
2022/09/12 00:54:28;;;;;;;6.60;6.20;;;;;;;12.79;100.00;100324.31;4971053;28;20202;-73
2022/09/12 00:57:00;;;;;;;6.43;6.03;;;;;;;12.78;100.00;100325.22;4965767;28;20278;-73
2022/09/12 00:59:36;;;;;;;6.27;5.87;;;;;;;12.78;100.00;100320.00;4964876;28;20674;-73
2022/09/12 01:02:02;;;;;;;6.23;5.73;;;;;;;12.74;100.00;100323.56;4971064;28;20201;-73
2022/09/12 01:04:29;;;;;;;6.70;6.10;;;;;;;12.72;100.00;100321.88;4973804;28;20194;-76
2022/09/12 01:06:57;;;;;;;6.80;6.23;;;;;;;12.70;100.00;100329.69;4970185;28;20225;-76
2022/09/12 01:09:24;;;;;;;6.73;6.23;;;;;;;12.68;100.00;100310.69;4968802;28;20635;-73
2022/09/12 01:11:50;;;;;;;7.00;6.40;;;;;;;12.65;100.00;100323.72;4969035;28;20658;-76
2022/09/12 01:14:18;;;;;;;7.20;6.60;;;;;;;12.60;100.00;100315.16;4968088;28;20198;-74
2022/09/12 01:16:45;;;;;;;7.67;7.07;;;;;;;12.56;100.00;100313.50;4968814;28;20192;-73
2022/09/12 01:19:41;;;;;;;6.50;6.10;;;;;;;12.52;100.00;100309.22;4966283;28;20190;-73
2022/09/12 01:22:57;;;;;;;6.90;6.40;;;;;;;12.50;100.00;100311.84;4969710;28;20199;-72
2022/09/12 01:25:44;;;;;;;7.40;6.90;;;;;;;12.48;100.00;100309.28;4947703;28;20213;-75
2022/09/12 01:28:37;;;;;;;7.23;6.53;;;;;;;12.49;100.00;100308.38;4967352;28;20222;-74
2022/09/12 01:31:14;;;;;;;7.97;7.27;;;;;;;12.48;100.00;100306.69;4967273;28;20198;-75
2022/09/12 01:34:27;;;;;;;7.17;6.63;;;;;;;12.52;100.00;100302.31;4967704;28;20197;-75
2022/09/12 01:37:13;;;;;;;7.40;6.83;;;;;;;12.54;100.00;100310.06;4962902;28;20234;-74
2022/09/12 01:39:46;;;;;;;7.13;6.63;;;;;;;12.54;100.00;100310.06;4962369;28;20195;-72
2022/09/12 01:42:21;;;;;;;7.57;7.07;;;;;;;12.52;100.00;100298.84;4965604;28;20194;-73
2022/09/12 01:44:55;;;;;;;7.97;7.47;;;;;;;12.50;100.00;100298.88;4966154;28;20205;-74
2022/09/12 01:47:38;;;;;;;7.90;7.30;;;;;;;12.49;100.00;100294.56;4967143;28;20218;-75
2022/09/12 01:50:05;;;;;;;7.63;7.03;;;;;;;12.49;100.00;100298.00;4968035;28;20198;-74
2022/09/12 01:52:48;;;;;;;7.57;6.97;;;;;;;12.47;100.00;100292.00;4965833;28;20186;-75
2022/09/12 01:55:33;;;;;;;7.60;7.00;;;;;;;12.44;100.00;100294.66;4964403;28;20201;-74
2022/09/12 01:58:07;;;;;;;7.73;7.13;;;;;;;12.43;100.00;100290.34;4968106;28;20214;-74
2022/09/12 02:00:38;;;;;;;7.77;7.13;;;;;;;12.41;100.00;100289.50;4966083;28;20965;-73
2022/09/12 02:03:11;;;;;;;7.57;6.97;;;;;;;12.42;100.00;100288.63;4966447;28;20187;-76
2022/09/12 02:05:42;;;;;;;7.50;6.87;;;;;;;12.39;100.00;100278.28;4962107;28;20681;-73
2022/09/12 02:08:13;;;;;;;7.07;6.57;;;;;;;12.35;100.00;100281.81;4967044;28;20216;-74
2022/09/12 02:11:07;;;;;;;6.83;6.33;;;;;;;12.30;100.00;100275.84;4965104;28;20214;-75
2022/09/12 02:13:43;;;;;;;7.67;7.07;;;;;;;12.25;100.00;100278.50;4966491;28;20207;-74
2022/09/12 02:16:12;;;;;;;7.53;6.90;;;;;;;12.18;100.00;100269.97;4963981;28;20637;-75
2022/09/12 02:18:49;;;;;;;7.70;7.10;;;;;;;12.14;100.00;100276.09;4970789;28;20215;-74
2022/09/12 02:21:18;;;;;;;8.07;7.37;;;;;;;12.10;100.00;100271.00;4968283;28;20348;-75
2022/09/12 02:23:49;;;;;;;8.47;7.73;;;;;;;12.07;100.00;100265.84;4966719;28;20205;-74
2022/09/12 02:26:22;;;;;;;7.90;7.30;;;;;;;12.03;100.00;100272.78;4964178;28;20261;-74
2022/09/12 02:28:48;;;;;;;8.53;7.83;;;;;;;12.01;100.00;100272.81;4969664;28;20222;-73
2022/09/12 02:31:36;;;;;;;11.07;8.30;;;;;;;12.00;100.00;100273.72;4967577;28;20437;-75
2022/09/12 02:34:07;;;;;;;9.30;8.40;;;;;;;12.01;100.00;100269.41;4970178;28;20194;-74
2022/09/12 02:36:49;;;;;;;10.00;9.10;;;;;;;12.01;100.00;100272.00;4962476;28;20292;-75
2022/09/12 02:39:18;;;;;;;9.33;8.60;;;;;;;11.97;100.00;100271.13;4969359;28;20213;-76
2022/09/12 02:41:51;;;;;;;9.30;8.60;;;;;;;11.95;100.00;100272.88;4964805;28;20217;-77
2022/09/12 02:44:17;;;;;;;9.27;8.47;;;;;;;11.94;100.00;100272.91;4965050;28;20240;-73
2022/09/12 02:46:47;;;;;;;9.37;8.57;;;;;;;11.89;100.00;100276.41;4964619;28;20193;-74
2022/09/12 02:49:13;;;;;;;9.43;8.33;;;;;;;11.85;100.00;100269.59;4969951;28;20218;-74
2022/09/12 02:51:40;;;;;;;8.87;8.07;;;;;;;11.82;100.00;100271.34;4964826;28;20296;-74
2022/09/12 02:54:06;;;;;;;9.23;8.43;;;;;;;11.78;100.00;100273.13;4966340;28;20194;-75
2022/09/12 02:56:32;;;;;;;9.73;8.93;;;;;;;11.77;100.00;100266.22;4965124;28;20812;-73
2022/09/12 02:59:05;;;;;;;8.83;8.13;;;;;;;11.79;100.00;100271.41;4969362;28;20203;-74
2022/09/12 03:01:52;;;;;;;9.00;8.30;;;;;;;11.81;100.00;100267.91;4969776;28;20197;-74
2022/09/12 03:04:45;;;;;;;8.90;8.10;;;;;;;11.84;100.00;100267.00;4960799;28;20192;-73
2022/09/12 03:07:23;;;;;;;8.73;8.13;;;;;;;11.86;100.00;100267.84;4964636;28;20306;-75
2022/09/12 03:09:54;;;;;;;8.30;7.70;;;;;;;11.85;100.00;100267.00;4965627;28;20189;-75
2022/09/12 03:12:32;;;;;;;8.70;7.93;;;;;;;11.84;100.00;100262.69;4965189;28;20721;-77
2022/09/12 03:15:03;;;;;;;8.00;7.40;;;;;;;11.82;100.00;100253.19;4966710;28;20197;-76
2022/09/12 03:17:35;;;;;;;8.00;7.40;;;;;;;11.76;100.00;100261.91;4966459;28;20210;-74
2022/09/12 03:20:12;;;;;;;8.07;7.57;;;;;;;11.75;100.00;100262.81;4970722;28;20734;-74
2022/09/12 03:22:51;;;;;;;7.10;6.60;;;;;;;11.74;100.00;100267.13;4987749;28;20200;-75
2022/09/12 03:25:33;;;;;;;7.33;6.83;;;;;;;11.73;100.00;100268.03;4965889;28;20189;-75
2022/09/12 03:28:07;;;;;;;7.40;6.90;;;;;;;11.73;100.00;100277.50;4967074;28;20245;-74
2022/09/12 03:30:44;;;;;;;7.70;7.03;;;;;;;11.70;100.00;100273.25;4964654;28;20221;-73
2022/09/12 03:33:11;;;;;;;7.40;6.90;;;;;;;11.68;100.00;100276.75;4971569;28;20251;-75
2022/09/12 03:35:37;;;;;;;7.80;7.20;;;;;;;11.65;100.00;100272.44;4976791;28;20193;-74
2022/09/12 03:38:02;;;;;;;7.73;7.13;;;;;;;11.64;100.00;100275.06;4958978;28;20309;-73
2022/09/12 03:40:27;;;;;;;7.90;7.30;;;;;;;11.60;100.00;100276.84;4959045;28;20190;-75
2022/09/12 03:42:53;;;;;;;7.60;7.00;;;;;;;11.57;100.00;100271.69;4977098;28;20193;-75
2022/09/12 03:45:18;;;;;;;7.53;7.03;;;;;;;11.55;100.00;100270.84;4967220;28;20281;-75
2022/09/12 03:47:43;;;;;;;8.50;7.83;;;;;;;11.52;100.00;100276.94;4967444;28;20226;-73
2022/09/12 03:50:09;;;;;;;8.40;7.70;;;;;;;11.48;100.00;100267.50;4971410;28;20198;-73
2022/09/12 03:52:34;;;;;;;7.93;7.33;;;;;;;11.46;100.00;100265.81;4963636;28;20640;-77
2022/09/12 03:55:00;;;;;;;8.53;7.73;;;;;;;11.46;100.00;100271.84;4980232;28;20182;-74
2022/09/12 03:57:25;;;;;;;8.67;7.87;;;;;;;11.48;100.00;100266.66;4964068;28;20217;-74
2022/09/12 03:59:50;;;;;;;8.47;7.83;;;;;;;11.48;100.00;100267.50;4966962;28;20194;-75
2022/09/12 04:02:16;;;;;;;8.53;7.83;;;;;;;11.48;100.00;100264.91;4965788;28;20246;-74
2022/09/12 04:04:42;;;;;;;8.60;7.90;;;;;;;11.50;100.00;100268.34;4965652;28;20659;-73
2022/09/12 04:07:08;;;;;;;8.70;8.00;;;;;;;11.50;100.00;100263.16;4967227;28;20215;-73
2022/09/12 04:09:34;;;;;;;8.67;7.97;;;;;;;11.51;100.00;100266.59;4966307;28;20197;-74
2022/09/12 04:11:59;;;;;;;8.70;8.00;;;;;;;11.48;100.00;100267.50;4964500;28;20572;-75
2022/09/12 04:14:24;;;;;;;8.33;7.70;;;;;;;11.44;100.00;100253.72;4965437;28;20198;-74
2022/09/12 04:16:50;;;;;;;8.93;8.23;;;;;;;11.44;100.00;100265.81;4967529;28;20214;-74
2022/09/12 04:19:15;;;;;;;8.80;8.10;;;;;;;11.43;100.00;100252.00;4964135;28;20200;-78
2022/09/12 04:21:40;;;;;;;8.00;7.30;;;;;;;11.43;100.00;100259.78;4962893;28;20197;-75
2022/09/12 04:24:06;;;;;;;8.77;8.13;;;;;;;11.43;100.00;100253.72;4962755;28;20232;-73
2022/09/12 04:26:31;;;;;;;8.17;7.57;;;;;;;11.42;100.00;100257.19;4962546;28;20620;-75
2022/09/12 04:28:56;;;;;;;8.53;7.93;;;;;;;11.42;100.00;100252.88;4966935;28;20229;-74
2022/09/12 04:31:23;;;;;;;8.60;7.80;;;;;;;11.41;100.00;100255.50;4963915;28;20278;-75
2022/09/12 04:33:56;;;;;;;8.20;7.47;;;;;;;11.39;100.00;100247.72;4965155;28;20565;-74
2022/09/12 04:36:23;;;;;;;8.30;7.60;;;;;;;11.38;100.00;100250.34;4963721;28;20199;-75
2022/09/12 04:38:48;;;;;;;10.63;7.87;;;;;;;11.37;100.00;100248.63;4967971;28;20297;-74
2022/09/12 04:41:22;;;;;;;8.30;7.70;;;;;;;11.38;100.00;100243.44;4974103;28;20285;-74
2022/09/12 04:43:51;;;;;;;8.70;7.93;;;;;;;11.41;100.00;100245.13;4976925;28;20248;-73
2022/09/12 04:46:19;;;;;;;8.87;7.97;;;;;;;11.44;100.00;100245.06;4965779;28;20194;-73
2022/09/12 04:48:45;;;;;;;8.60;7.90;;;;;;;11.51;100.00;100245.84;4970296;28;20858;-75
2022/09/12 04:51:16;;;;;;;9.00;8.30;;;;;;;11.57;100.00;100251.81;4969645;28;20248;-74
2022/09/12 04:53:42;;;;;;;9.57;8.70;;;;;;;11.62;100.00;100245.72;4971024;28;20222;-75
2022/09/12 04:56:10;;;;;;;8.47;7.87;;;;;;;11.65;100.00;100251.69;4984110;28;20194;-74
2022/09/12 04:58:36;;;;;;;8.93;8.23;;;;;;;11.64;100.00;100262.97;4963526;28;20222;-74
2022/09/12 05:01:13;;;;;;;9.03;8.33;;;;;;;11.62;100.00;100261.25;4977315;28;20194;-75
2022/09/12 05:03:42;;;;;;;9.40;8.60;;;;;;;11.56;100.00;100264.78;4975773;28;20196;-74
2022/09/12 05:06:10;;;;;;;8.63;7.93;;;;;;;11.49;100.00;100261.44;4969752;28;20252;-75
2022/09/12 05:08:36;;;;;;;9.30;8.50;;;;;;;11.43;100.00;100271.88;4966407;28;20974;-75
2022/09/12 05:11:07;;;;;;;8.67;7.90;;;;;;;11.41;100.00;100268.47;4984794;28;20221;-73
2022/09/12 05:13:33;;;;;;;8.80;8.07;;;;;;;11.40;100.00;100285.72;4968785;28;20608;-74
2022/09/12 05:16:00;;;;;;;8.73;7.93;;;;;;;11.39;100.00;100273.66;4971399;28;20197;-74
2022/09/12 05:18:25;;;;;;;9.03;8.23;;;;;;;11.40;100.00;100272.78;4967770;28;20210;-77
2022/09/12 05:20:54;;;;;;;7.93;7.33;;;;;;;11.48;100.00;100280.44;4968614;28;20194;-73
2022/09/12 05:23:20;;;;;;;7.60;7.00;;;;;;;11.57;100.00;100277.72;4980058;28;20289;-75
2022/09/12 05:25:54;;;;;;;8.27;7.63;;;;;;;11.68;100.00;100277.59;4982325;28;20292;-75
2022/09/12 05:28:21;;;;;;;8.50;7.90;;;;;;;11.75;100.00;100275.75;4963586;28;20224;-74
2022/09/12 05:30:46;;;;;;;8.63;7.90;;;;;;;11.84;100.00;100272.19;4966412;28;20285;-74
2022/09/12 05:33:12;;;;;;;7.83;7.23;;;;;;;11.96;100.00;100274.59;4965722;28;20312;-74
2022/09/12 05:35:39;;;;;;;6.80;6.30;;;;;;;12.09;100.00;100275.31;4965903;28;20202;-77
2022/09/12 05:38:05;;;;;;;7.77;7.20;;;;;;;12.23;100.00;100271.63;4965630;28;20247;-75
2022/09/12 05:40:31;;;;;;;7.10;6.60;;;;;;;12.32;100.00;100274.94;4966639;28;20195;-74
2022/09/12 05:42:56;;;;;;;6.50;6.07;;;;;;;12.38;100.00;100273.13;4967265;28;20634;-74
2022/09/12 05:45:22;;;;;;;6.83;6.33;;;;;;;12.39;100.00;100267.06;4965167;28;20575;-74
2022/09/12 05:47:47;;;;;;;7.67;7.07;;;;;;;12.46;100.00;100268.66;4964108;28;20230;-74
2022/09/12 05:50:13;;;;;;;8.27;7.57;;;;;;;12.63;100.00;100270.94;4964734;28;20186;-74
2022/09/12 05:52:38;;;;;;;7.67;7.03;;;;;;;12.71;100.00;100269.09;4969082;28;20212;-73
2022/09/12 05:55:04;;;;;;;7.10;6.60;;;;;;;12.81;100.00;100277.56;4989626;28;20302;-77
2022/09/12 05:57:30;;;;;;;7.10;6.50;;;;;;;12.94;100.00;100286.84;4981165;28;20212;-73
2022/09/12 05:59:55;;;;;;;6.80;6.17;;;;;;;13.00;100.00;100280.69;4982185;28;20196;-76
2022/09/12 06:02:21;;;;;;;6.80;6.30;;;;;;;13.02;100.00;100281.50;4980616;28;20706;-75
2022/09/12 06:04:46;;;;;;;7.17;6.60;;;;;;;13.03;100.00;100278.03;4969425;28;20206;-74
2022/09/12 06:07:12;;;;;;;7.50;6.80;;;;;;;13.04;100.00;100277.13;4970946;28;20202;-74
2022/09/12 06:09:37;;;;;;;8.00;7.30;;;;;;;13.13;100.00;100281.31;4978302;28;20752;-77
2022/09/12 06:12:03;;;;;;;7.80;7.20;;;;;;;13.32;100.00;100286.97;4970388;28;20197;-74
2022/09/12 06:14:28;;;;;;;7.70;7.00;;;;;;;13.49;100.00;100286.66;4968239;28;20333;-73
2022/09/12 06:16:54;;;;;;;6.83;6.33;;;;;;;13.53;100.00;100287.47;4982246;28;20206;-77
2022/09/12 06:19:21;;;;;;;7.00;6.30;;;;;;;13.52;100.00;100283.16;4981824;28;20193;-75
2022/09/12 06:21:48;;;;;;;7.20;6.60;;;;;;;13.51;100.00;100284.88;4977312;28;20191;-73
2022/09/12 06:24:15;;;;;;;7.23;6.63;;;;;;;13.54;100.00;100281.34;4973948;28;20208;-75
2022/09/12 06:26:41;;;;;;;8.57;7.77;;;;;;;13.60;100.00;100286.44;4974169;28;20192;-74
2022/09/12 06:29:07;;;;;;;8.10;7.50;;;;;;;13.62;100.00;100282.06;4965879;28;20216;-75
2022/09/12 06:31:35;;;;;;;7.63;7.03;;;;;;;13.69;100.00;100286.22;4966303;28;20946;-75
2022/09/12 06:34:03;;;;;;;7.90;7.30;;;;;;;13.82;100.00;100280.78;4965527;28;20278;-75
2022/09/12 06:36:31;;;;;;;7.43;6.83;;;;;;;14.18;100.00;100281.66;4966518;28;20209;-75
2022/09/12 06:39:02;;;;;;;7.13;6.63;;;;;;;14.43;100.00;100282.81;4970300;28;20297;-76
2022/09/12 06:41:29;;;;;;;7.03;6.43;;;;;;;14.56;100.00;100280.72;4988465;28;20197;-72
2022/09/12 06:43:55;;;;;;;7.33;6.83;;;;;;;14.61;100.00;100279.72;4979825;28;20227;-73
2022/09/12 06:46:24;;;;;;;7.60;7.00;;;;;;;14.63;100.00;100271.88;4979508;28;20211;-74
2022/09/12 06:48:50;;;;;;;7.53;6.93;;;;;;;14.75;100.00;100270.72;4971997;28;20268;-75
2022/09/12 06:51:17;;;;;;;8.03;7.43;;;;;;;15.13;100.00;100276.63;4983274;28;20188;-74
2022/09/12 06:53:44;;;;;;;9.13;8.43;;;;;;;15.75;100.00;100267.00;4978451;28;20181;-75
2022/09/12 06:56:12;;;;;;;8.47;7.67;;;;;;;16.39;100.00;100265.88;4975721;28;20684;-75
2022/09/12 06:58:38;;;;;;;8.37;7.70;;;;;;;16.81;100.00;100274.88;4974954;28;20215;-74
2022/09/12 07:01:15;;;;;;;7.37;6.70;;;;;;;17.25;100.00;100281.22;4968710;28;20186;-75
2022/09/12 07:03:42;;;;;;;8.07;7.37;;;;;;;17.57;100.00;100279.16;4972927;28;20191;-75
2022/09/12 07:06:12;;;;;;;8.13;7.53;;;;;;;17.73;100.00;100272.41;4969010;28;20193;-74
2022/09/12 07:08:39;;;;;;;7.60;6.90;;;;;;;17.85;100.00;100271.09;4969008;28;20215;-75
2022/09/12 07:11:14;;;;;;;7.40;6.77;;;;;;;17.93;100.00;100276.03;4983527;28;20186;-75
2022/09/12 07:13:41;;;;;;;7.43;6.87;;;;;;;17.97;100.00;100281.09;4969825;28;20208;-75
2022/09/12 07:16:07;;;;;;;7.40;6.70;;;;;;;17.97;100.00;100283.72;4975478;28;20193;-72
2022/09/12 07:18:33;;;;;;;7.47;6.87;;;;;;;18.05;100.00;100288.66;4977838;28;20681;-73
2022/09/12 07:21:00;;;;;;;7.73;7.13;;;;;;;18.11;100.00;100283.19;4977313;28;20186;-73
2022/09/12 07:23:44;;;;;;;8.57;7.97;;;;;;;18.05;100.00;100278.19;5133533;27;20584;-76
2022/09/12 07:26:11;;;;;;;9.57;8.77;;;;;;;17.96;100.00;100273.28;5152241;27;20685;-76
2022/09/12 07:28:37;;;;;;;9.77;8.97;;;;;;;17.81;100.00;100274.72;5114509;27;20209;-76
2022/09/12 07:31:12;;;;;;;8.67;7.90;;;;;;;17.75;100.00;100275.00;5114433;28;20190;-76
2022/09/12 07:33:39;;;;;;;9.57;8.67;;;;;;;17.64;100.00;100272.78;5122536;27;20248;-78
2022/09/12 07:36:09;;;;;;;9.10;8.40;;;;;;;17.59;100.00;100277.34;5114675;28;20183;-76
2022/09/12 07:38:35;;;;;;;9.63;8.83;;;;;;;17.62;100.00;100272.00;5123680;27;20212;-77
2022/09/12 07:41:00;;;;;;;13.43;8.87;;;;;;;17.62;100.00;100272.81;5124069;27;20182;-77
2022/09/12 07:43:26;;;;;;;8.67;7.80;;;;;;;17.66;100.00;100276.19;5123705;28;20247;-76
2022/09/12 07:45:57;;;;;;;7.90;7.30;;;;;;;17.74;100.00;100275.91;5102903;28;20211;-77
2022/09/12 07:48:23;;;;;;;8.30;7.60;;;;;;;17.73;100.00;100279.44;5118027;27;20217;-76
2022/09/12 07:50:56;;;;;;;7.73;7.13;;;;;;;17.61;100.00;100276.38;5122578;27;20187;-76
2022/09/12 07:53:22;;;;;;;7.90;7.30;;;;;;;17.57;100.00;100280.03;5122434;27;20608;-75
2022/09/12 07:55:55;;;;;;;7.57;7.07;;;;;;;17.52;100.00;100277.59;5121142;28;20197;-76
2022/09/12 07:58:24;;;;;;;7.97;7.33;;;;;;;17.50;100.00;100279.41;5104681;27;20209;-76
2022/09/12 08:00:50;;;;;;;7.67;7.07;;;;;;;17.54;100.00;100281.91;5114391;28;20190;-77
2022/09/12 08:03:15;;;;;;;7.37;6.87;;;;;;;17.57;100.00;100282.63;5123228;27;20185;-76
2022/09/12 08:05:41;;;;;;;7.77;7.17;;;;;;;17.59;100.00;100278.19;5122469;27;20194;-76
2022/09/12 08:08:06;;;;;;;8.33;7.60;;;;;;;17.64;100.00;100284.09;5117991;28;20684;-76
2022/09/12 08:10:32;;;;;;;8.57;7.77;;;;;;;17.60;100.00;100284.28;5112238;27;20731;-77
2022/09/12 08:12:57;;;;;;;7.80;7.10;;;;;;;17.55;100.00;100283.59;5113397;27;20692;-76
2022/09/12 08:15:23;;;;;;;7.70;7.13;;;;;;;17.55;100.00;100284.47;5132165;27;20189;-76
2022/09/12 08:17:49;;;;;;;8.20;7.50;;;;;;;17.57;100.00;100284.38;5122970;27;20680;-76
2022/09/12 08:20:14;;;;;;;7.60;7.10;;;;;;;17.63;100.00;100286.78;5139935;27;20191;-77
2022/09/12 08:22:40;;;;;;;8.77;7.97;;;;;;;17.74;100.00;100284.59;5124269;27;20553;-77
2022/09/12 08:25:06;;;;;;;7.73;7.17;;;;;;;17.81;100.00;100278.22;5116185;28;20728;-76
2022/09/12 08:27:31;;;;;;;7.97;7.37;;;;;;;17.88;100.00;100278.81;5118139;27;20233;-76
2022/09/12 08:29:56;;;;;;;7.20;6.70;;;;;;;17.98;100.00;100279.34;5122227;27;20243;-76
2022/09/12 08:32:21;;;;;;;8.00;7.13;;;;;;;18.00;100.00;100279.28;5129080;27;20196;-76
2022/09/12 08:34:47;;;;;;;7.50;6.93;;;;;;;18.09;100.00;100278.91;5095436;27;20273;-76
2022/09/12 08:37:12;;;;;;;7.83;7.23;;;;;;;18.20;100.00;100274.09;5117672;27;20185;-76
2022/09/12 08:39:37;;;;;;;8.67;8.07;;;;;;;18.10;100.00;100275.38;5107385;27;20261;-76
2022/09/12 08:42:05;;;;;;;8.40;7.70;;;;;;;18.12;100.00;100279.66;5109464;27;20630;-75
2022/09/12 08:45:04;;;;;;;8.50;7.80;;;;;;;18.16;100.00;100277.75;5106294;28;20621;-76
2022/09/12 08:47:31;;;;;;;7.93;7.23;;;;;;;18.33;100.00;100277.03;5110637;27;20271;-77
2022/09/12 08:50:08;;;;;;;6.63;6.07;;;;;;;18.51;100.00;100282.44;5098406;28;20190;-76
2022/09/12 08:53:08;;;;;;;8.70;8.00;;;;;;;18.58;100.00;100276.88;5119624;27;20183;-75
2022/09/12 08:55:34;;;;;;;8.00;7.40;;;;;;;18.64;100.00;100275.75;5124905;27;21137;-76
2022/09/12 08:58:01;;;;;;;8.10;7.30;;;;;;;18.71;100.00;100274.59;5093000;28;20197;-76
2022/09/12 09:00:39;;;;;;;8.20;7.40;;;;;;;18.78;100.00;100269.91;5107714;28;20199;-76
2022/09/12 09:03:08;;;;;;;7.30;6.77;;;;;;;18.85;100.00;100270.50;5108702;27;20221;-76
2022/09/12 09:05:50;;;;;;;7.17;6.67;;;;;;;18.95;100.00;100265.75;5114821;27;20191;-76
2022/09/12 09:08:30;;;;;;;8.10;7.30;;;;;;;19.08;100.00;100276.53;5092242;28;20231;-77
2022/09/12 09:11:05;;;;;;;7.30;6.70;;;;;;;19.19;100.00;100274.28;5120341;27;20199;-76
2022/09/12 09:17:01;;;;;;;6.60;6.10;;;;;;;19.50;100.00;100265.00;5071692;28;20222;-78
2022/09/12 09:19:36;;;;;;;7.03;6.53;;;;;;;19.60;100.00;100262.78;5072877;28;20216;-77
2022/09/12 09:22:08;;;;;;;6.90;6.40;;;;;;;19.64;100.00;100264.34;5096159;28;20769;-77
2022/09/12 09:24:54;;;;;;;7.20;6.43;;;;;;;19.69;100.00;100261.50;5107244;28;20287;-77
2022/09/12 09:27:29;;;;;;;7.07;6.47;;;;;;;19.76;100.00;100266.38;5104466;28;20678;-78
2022/09/12 09:29:55;;;;;;;6.80;6.30;;;;;;;19.92;100.00;100268.31;5119053;27;20178;-78
2022/09/12 09:32:25;;;;;;;5.70;5.20;;;;;;;20.13;100.00;100261.16;5100146;27;20191;-76
2022/09/12 09:34:51;;;;;;;6.63;6.13;;;;;;;20.30;100.00;100264.72;5113118;27;20614;-76
2022/09/12 09:37:39;;;;;;;5.87;5.47;;;;;;;20.46;100.00;100257.75;5107600;28;20295;-76
2022/09/12 09:40:25;;;;;;;6.20;5.70;;;;;;;20.54;100.00;100254.75;5098330;28;20727;-75
2022/09/12 09:43:05;;;;;;;5.93;5.53;;;;;;;20.73;99.98;100262.53;5106282;27;20211;-75
2022/09/12 09:45:30;;;;;;;6.03;5.53;;;;;;;20.83;99.82;100261.16;5094234;28;20199;-76
2022/09/12 09:48:12;;;;;;;6.27;5.77;;;;;;;20.85;99.53;100267.19;5115277;27;20204;-76
2022/09/12 09:50:37;;;;;;;5.60;5.20;;;;;;;20.98;98.31;100263.91;5100298;28;20200;-76
2022/09/12 09:53:08;;;;;;;5.90;5.43;;;;;;;21.03;97.69;100253.97;5117603;27;20183;-75
2022/09/12 09:55:40;;;;;;;4.90;4.60;;;;;;;21.05;97.17;100254.75;5097915;28;20181;-76
2022/09/12 09:58:05;;;;;;;5.63;5.13;;;;;;;21.10;97.05;100251.91;5099925;27;20554;-77
2022/09/12 10:00:36;;;;;;;5.67;5.17;;;;;;;21.15;97.34;100255.13;5114039;27;20176;-76
2022/09/12 10:03:13;;;;;;;6.13;5.60;;;;;;;21.20;97.35;100245.19;5116274;27;20195;-78
2022/09/12 10:05:51;;;;;;;6.23;5.70;;;;;;;21.22;97.60;100248.59;5108242;27;20295;-76
2022/09/12 10:08:46;;;;;;;5.23;4.70;;;;;;;21.31;97.43;100239.34;5113767;27;20578;-77
2022/09/12 10:11:14;;;;;;;5.80;5.40;;;;;;;21.48;96.13;100246.31;5091242;27;20290;-77
2022/09/12 10:14:00;;;;;;;5.47;5.10;;;;;;;21.57;96.20;100235.25;5119032;27;20698;-76
2022/09/12 10:16:47;;;;;;;5.83;5.37;;;;;;;21.67;95.54;100234.78;5104091;27;20203;-76
2022/09/12 10:19:23;;;;;;;5.93;5.43;;;;;;;21.67;94.34;100233.00;5095259;28;20639;-76
2022/09/12 10:21:54;;;;;;;5.20;4.80;;;;;;;21.73;93.75;100226.53;5094448;27;20208;-76
2022/09/12 10:24:27;;;;;;;5.43;5.03;;;;;;;21.76;93.39;100234.25;5109724;27;20268;-77
2022/09/12 10:26:56;;;;;;;5.60;5.20;;;;;;;21.68;93.24;100215.41;5107608;27;20172;-76
2022/09/12 10:29:30;;;;;;;5.40;4.90;;;;;;;21.73;92.84;100221.25;5104229;27;20712;-77
2022/09/12 10:31:59;;;;;;;4.70;4.40;;;;;;;21.76;93.20;100211.41;5106618;28;20260;-76
2022/09/12 10:34:41;;;;;;;5.17;4.87;;;;;;;21.81;92.12;100212.91;5114938;27;20275;-76
2022/09/12 10:37:14;;;;;;;5.03;4.63;;;;;;;21.86;91.90;100206.44;5110602;27;20203;-76
2022/09/12 10:39:40;;;;;;;4.70;4.33;;;;;;;21.97;91.29;100207.63;5096004;28;20651;-76
2022/09/12 10:42:06;;;;;;;4.63;4.33;;;;;;;22.15;89.47;100201.28;5085527;28;20615;-75
2022/09/12 10:44:33;;;;;;;4.33;4.03;;;;;;;22.18;88.26;100202.88;5105846;28;20188;-76
2022/09/12 10:47:18;;;;;;;4.97;4.57;;;;;;;22.26;87.68;100197.16;5090228;28;20188;-76
2022/09/12 10:49:44;;;;;;;4.43;4.13;;;;;;;22.26;87.48;100199.78;5112375;27;20195;-75
2022/09/12 10:52:23;;;;;;;5.00;4.60;;;;;;;22.28;87.31;100190.84;5106516;27;20175;-76
2022/09/12 10:55:15;;;;;;;5.00;4.40;;;;;;;22.43;87.14;100183.00;5091272;28;20190;-77
2022/09/12 10:57:55;;;;;;;4.80;4.20;;;;;;;22.51;87.14;100181.59;5082919;28;20191;-76
2022/09/12 11:00:26;;;;;;;4.13;3.83;;;;;;;22.63;87.38;100190.53;5111310;27;20183;-76
2022/09/12 11:03:14;;;;;;;4.50;4.10;;;;;;;22.64;86.38;100180.81;5113556;27;20200;-76
2022/09/12 11:05:50;;;;;;;4.33;4.03;;;;;;;22.79;85.69;100177.25;5100755;28;20188;-76
2022/09/12 11:08:34;;;;;;;4.17;3.87;;;;;;;22.89;84.36;100174.06;5105574;28;20834;-76
2022/09/12 11:11:18;;;;;;;4.00;3.70;;;;;;;22.91;84.66;100167.72;5101587;27;20551;-77
2022/09/12 11:13:49;;;;;;;4.37;4.07;;;;;;;22.91;85.08;100161.63;5103078;28;20286;-76
2022/09/12 11:16:33;;;;;;;4.13;3.83;;;;;;;22.94;84.67;100161.41;5113396;27;20560;-74
2022/09/12 11:19:32;;;;;;;4.07;3.77;;;;;;;23.08;84.27;100163.19;5089121;28;20706;-79
2022/09/12 11:22:18;;;;;;;4.10;3.83;;;;;;;23.16;84.29;100154.78;5104152;28;20207;-76
2022/09/12 11:25:11;;;;;;;4.10;3.80;;;;;;;23.29;83.63;100160.97;5109125;28;20337;-75
2022/09/12 11:28:02;;;;;;;4.03;3.63;;;;;;;23.27;83.67;100160.22;5111731;27;20658;-78
2022/09/12 11:30:38;;;;;;;4.40;3.97;;;;;;;23.27;82.75;100154.94;5092227;28;20667;-76
2022/09/12 11:33:07;;;;;;;3.67;3.33;;;;;;;23.18;83.20;100152.88;5094347;28;20184;-75
2022/09/12 11:35:34;;;;;;;6.07;3.67;;;;;;;23.31;82.88;100148.53;5107449;28;20199;-76
2022/09/12 11:38:02;;;;;;;4.80;4.40;;;;;;;23.38;82.09;100141.91;5105122;28;20208;-77
2022/09/12 11:40:39;;;;;;;3.97;3.67;;;;;;;23.41;82.18;100141.69;5112942;28;20671;-76